Time;durP1;ratioP1;P1;durP2;ratioP2;P2;SDS_P1;SDS_P2;PMS_P1;PMS_P2;Temp;Humidity;BMP_temperature;BMP_pressure;BME280_temperature;BME280_humidity;BME280_pressure;Samples;Min_cycle;Max_cycle;Signal;HPM_P1;HPM_P2
2022/01/04 00:01:48;;;;;;;5.40;3.07;;;;;;;8.19;100.00;98906.00;4990076;28;20397;-58
2022/01/04 00:04:13;;;;;;;5.63;3.50;;;;;;;8.20;100.00;98907.66;5015952;28;20281;-57
2022/01/04 00:06:39;;;;;;;5.80;3.10;;;;;;;8.06;100.00;98898.28;5023708;28;20607;-57
2022/01/04 00:09:05;;;;;;;4.57;3.67;;;;;;;8.14;100.00;98897.78;5031565;28;20275;-58
2022/01/04 00:11:43;;;;;;;5.90;3.40;;;;;;;8.00;100.00;98885.03;5032820;28;20662;-58
2022/01/04 00:14:09;;;;;;;3.60;3.10;;;;;;;8.18;100.00;98881.31;5033419;28;20216;-58
2022/01/04 00:16:34;;;;;;;4.93;3.27;;;;;;;8.32;100.00;98883.00;5032928;28;20225;-58
2022/01/04 00:19:00;;;;;;;8.37;3.80;;;;;;;8.42;100.00;98878.06;5034640;28;20212;-58
2022/01/04 00:21:25;;;;;;;5.77;3.43;;;;;;;8.55;100.00;98867.88;5031560;28;20237;-57
2022/01/04 00:23:50;;;;;;;7.03;3.70;;;;;;;8.58;100.00;98864.28;5035552;28;20643;-57
2022/01/04 00:26:15;;;;;;;6.27;3.63;;;;;;;8.53;100.00;98862.88;5030241;28;20170;-58
2022/01/04 00:28:41;;;;;;;4.63;3.80;;;;;;;8.52;100.00;98845.00;5031087;28;20198;-58
2022/01/04 00:31:06;;;;;;;5.73;4.07;;;;;;;8.53;100.00;98833.84;5008363;28;20229;-58
2022/01/04 00:33:31;;;;;;;3.97;3.10;;;;;;;8.45;100.00;98825.81;5038442;28;20198;-58
2022/01/04 00:35:56;;;;;;;5.90;4.10;;;;;;;8.39;100.00;98821.91;5031086;28;20185;-58
2022/01/04 00:38:22;;;;;;;8.67;4.00;;;;;;;8.47;100.00;98809.44;5014419;28;20640;-58
2022/01/04 00:40:50;;;;;;;7.83;3.87;;;;;;;8.26;100.00;98808.25;5006784;28;20272;-58
2022/01/04 00:43:15;;;;;;;4.10;3.40;;;;;;;8.06;100.00;98807.81;5020348;28;20226;-58
2022/01/04 00:45:41;;;;;;;6.30;3.90;;;;;;;8.06;100.00;98805.25;5009185;28;20261;-58
2022/01/04 00:50:35;;;;;;;4.33;3.50;;;;;;;8.25;100.00;98802.31;5004987;28;20230;-58
2022/01/04 00:53:01;;;;;;;9.90;3.47;;;;;;;8.31;100.00;98794.25;5009667;28;20320;-58
2022/01/04 00:55:28;;;;;;;5.43;3.70;;;;;;;8.36;100.00;98786.22;5010878;28;20186;-58
2022/01/04 00:57:53;;;;;;;7.17;2.90;;;;;;;8.42;100.00;98774.75;5010868;28;20185;-58
2022/01/04 01:00:19;;;;;;;2.37;2.17;;;;;;;8.26;100.00;98772.41;5002716;28;20934;-58
2022/01/04 01:02:45;;;;;;;3.23;2.67;;;;;;;8.43;100.00;98766.97;5023665;28;20178;-58
2022/01/04 01:05:12;;;;;;;3.33;1.93;;;;;;;8.52;100.00;98757.88;5010581;28;20170;-58
2022/01/04 01:07:37;;;;;;;4.03;1.70;;;;;;;8.64;100.00;98751.09;5010945;28;20543;-57
2022/01/04 01:10:31;;;;;;;2.23;2.03;;;;;;;8.62;100.00;98747.81;5002565;28;20194;-58
2022/01/04 01:12:56;;;;;;;2.23;1.60;;;;;;;8.56;100.00;98733.69;5022286;28;20624;-58
2022/01/04 01:15:22;;;;;;;1.23;1.13;;;;;;;8.60;100.00;98729.19;5010553;28;20175;-58
2022/01/04 01:17:47;;;;;;;1.93;1.60;;;;;;;8.54;100.00;98726.06;5010933;28;20616;-58
2022/01/04 01:20:14;;;;;;;3.03;1.70;;;;;;;8.64;100.00;98717.78;5001909;28;20191;-58
2022/01/04 01:22:40;;;;;;;2.00;1.70;;;;;;;8.63;100.00;98721.25;5024123;28;20182;-58
2022/01/04 01:25:06;;;;;;;2.00;1.80;;;;;;;8.64;100.00;98718.59;5010329;28;20171;-58
2022/01/04 01:27:32;;;;;;;1.57;1.37;;;;;;;8.63;100.00;98711.81;5010632;28;20186;-58
2022/01/04 01:29:57;;;;;;;5.20;2.00;;;;;;;8.53;100.00;98706.53;5007253;28;20207;-58
2022/01/04 01:32:22;;;;;;;2.37;1.63;;;;;;;8.42;100.00;98697.88;4997859;28;20727;-58
2022/01/04 01:34:48;;;;;;;2.00;1.80;;;;;;;8.48;100.00;98695.75;5009415;28;20577;-58
2022/01/04 01:37:13;;;;;;;3.03;1.57;;;;;;;8.41;100.00;98694.50;5010305;28;20276;-58
2022/01/04 01:39:40;;;;;;;1.93;1.73;;;;;;;8.55;100.00;98694.41;5013376;28;20238;-58
2022/01/04 01:42:05;;;;;;;3.43;1.40;;;;;;;8.35;100.00;98697.50;5018814;28;20650;-59
2022/01/04 01:44:32;;;;;;;2.80;1.43;;;;;;;8.28;100.00;98686.81;5013165;28;20205;-58
2022/01/04 01:46:58;;;;;;;1.53;1.43;;;;;;;8.31;100.00;98678.94;5013367;28;20175;-59
2022/01/04 01:49:24;;;;;;;2.17;1.40;;;;;;;8.47;100.00;98677.91;5013351;28;20282;-58
2022/01/04 01:51:50;;;;;;;1.17;1.13;;;;;;;8.34;100.00;98670.22;5005008;28;20316;-58
2022/01/04 01:54:15;;;;;;;1.50;1.23;;;;;;;8.28;100.00;98670.66;5011717;28;20170;-57
2022/01/04 01:56:41;;;;;;;1.13;1.03;;;;;;;8.35;100.00;98661.63;5013321;28;20710;-59
2022/01/04 01:59:07;;;;;;;1.20;1.10;;;;;;;8.19;100.00;98649.84;5013016;28;20195;-58
2022/01/04 02:01:33;;;;;;;2.10;1.03;;;;;;;8.42;100.00;98656.88;5006363;28;20363;-58
2022/01/04 02:03:58;;;;;;;0.90;0.90;;;;;;;8.43;100.00;98643.16;5013045;28;20181;-58
2022/01/04 02:06:24;;;;;;;1.00;1.00;;;;;;;8.52;100.00;98642.53;5013055;28;20174;-58
2022/01/04 02:08:50;;;;;;;0.87;0.87;;;;;;;8.55;100.00;98632.88;5013304;28;20195;-58
2022/01/04 02:11:17;;;;;;;1.10;1.00;;;;;;;8.63;100.00;98634.91;5012380;28;20603;-58
2022/01/04 02:13:42;;;;;;;1.00;1.00;;;;;;;8.55;100.00;98619.28;5018647;28;20174;-57
2022/01/04 02:16:09;;;;;;;1.33;1.20;;;;;;;8.59;100.00;98609.63;5013350;28;20221;-59
2022/01/04 02:18:34;;;;;;;1.97;1.10;;;;;;;8.69;100.00;98602.91;5013172;28;20174;-58
2022/01/04 02:21:00;;;;;;;1.77;1.33;;;;;;;8.59;100.00;98599.38;5010116;28;20260;-59
2022/01/04 02:23:25;;;;;;;1.40;1.30;;;;;;;8.52;100.00;98594.69;5020433;28;20547;-58
2022/01/04 02:25:50;;;;;;;1.97;1.43;;;;;;;8.56;100.00;98592.72;5012451;28;20262;-58
2022/01/04 02:28:20;;;;;;;1.50;1.17;;;;;;;8.67;100.00;98595.34;5012597;28;20170;-58
2022/01/04 02:30:47;;;;;;;2.07;1.77;;;;;;;8.61;100.00;98582.97;5008057;28;20225;-58
2022/01/04 02:33:13;;;;;;;4.83;3.70;;;;;;;8.55;100.00;98568.00;5022140;28;20162;-58
2022/01/04 02:35:39;;;;;;;1.70;1.60;;;;;;;8.39;100.00;98570.81;5012378;28;20174;-57
2022/01/04 02:38:04;;;;;;;2.17;2.00;;;;;;;8.54;100.00;98568.94;5011025;28;20183;-58
2022/01/04 02:40:31;;;;;;;1.90;1.80;;;;;;;8.54;100.00;98564.63;5005972;28;20230;-58
2022/01/04 02:42:57;;;;;;;1.73;1.63;;;;;;;8.44;100.00;98558.47;5024028;28;20192;-58
2022/01/04 02:45:23;;;;;;;2.70;1.80;;;;;;;8.55;100.00;98558.56;5012203;28;20257;-58
2022/01/04 02:47:48;;;;;;;3.07;1.87;;;;;;;8.50;100.00;98541.91;5012420;28;20266;-58
2022/01/04 02:50:13;;;;;;;1.70;1.60;;;;;;;8.38;100.00;98546.94;5002790;28;20678;-58
2022/01/04 02:52:39;;;;;;;1.80;1.70;;;;;;;8.36;100.00;98542.81;5011041;28;20806;-58
2022/01/04 02:55:06;;;;;;;2.47;1.90;;;;;;;8.32;100.00;98543.97;5012139;28;20175;-58
2022/01/04 02:57:33;;;;;;;2.37;2.10;;;;;;;8.42;100.00;98532.13;5012237;28;20178;-58
2022/01/04 02:59:58;;;;;;;1.93;1.83;;;;;;;8.55;100.00;98529.56;5009202;28;20237;-58
2022/01/04 03:02:25;;;;;;;2.73;1.87;;;;;;;8.61;100.00;98518.03;5016830;28;20234;-58
2022/01/04 03:04:50;;;;;;;2.77;1.90;;;;;;;8.65;100.00;98517.72;5011679;28;20209;-58
2022/01/04 03:07:15;;;;;;;1.83;1.73;;;;;;;8.74;100.00;98498.28;5011891;28;20206;-58
2022/01/04 03:09:41;;;;;;;2.83;1.80;;;;;;;8.82;100.00;98505.41;5012000;28;20237;-59
2022/01/04 03:12:07;;;;;;;3.63;1.87;;;;;;;8.79;100.00;98496.22;5017268;28;20697;-58
2022/01/04 03:14:34;;;;;;;3.60;1.73;;;;;;;8.80;100.00;98487.59;5011672;28;20175;-58
2022/01/04 03:16:59;;;;;;;2.93;1.97;;;;;;;8.86;100.00;98484.56;5011925;28;20178;-58
2022/01/04 03:19:25;;;;;;;1.83;1.73;;;;;;;8.80;100.00;98485.03;5011706;28;20195;-58
2022/01/04 03:21:50;;;;;;;3.57;2.20;;;;;;;8.80;100.00;98477.34;5015155;28;20252;-58
2022/01/04 03:24:15;;;;;;;4.23;2.23;;;;;;;8.80;100.00;98477.34;5013135;28;20183;-57
2022/01/04 03:26:42;;;;;;;3.53;2.50;;;;;;;8.85;100.00;98469.31;5011541;28;20652;-58
2022/01/04 03:29:09;;;;;;;2.60;2.40;;;;;;;8.85;100.00;98470.13;5011503;28;20219;-58
2022/01/04 03:31:35;;;;;;;2.20;2.00;;;;;;;8.86;100.00;98464.06;5013319;28;20326;-57
2022/01/04 03:34:01;;;;;;;3.40;2.20;;;;;;;8.86;100.00;98456.38;5014977;28;20261;-58
2022/01/04 03:36:27;;;;;;;2.70;2.30;;;;;;;8.82;100.00;98454.13;5012056;28;20628;-58
2022/01/04 03:38:53;;;;;;;3.10;2.30;;;;;;;8.75;100.00;98445.28;5011965;28;20260;-58
2022/01/04 03:41:21;;;;;;;2.27;2.07;;;;;;;8.74;100.00;98441.88;5011156;28;20284;-58
2022/01/04 03:43:47;;;;;;;3.00;2.27;;;;;;;8.74;100.00;98441.88;5017038;28;20190;-58
2022/01/04 03:46:13;;;;;;;3.17;2.00;;;;;;;8.82;100.00;98437.03;5011868;28;20212;-58
2022/01/04 03:48:38;;;;;;;2.10;1.90;;;;;;;8.77;100.00;98426.31;5011033;28;20217;-58
2022/01/04 03:51:05;;;;;;;3.40;2.20;;;;;;;8.79;100.00;98429.53;5009014;28;20337;-58
2022/01/04 03:53:31;;;;;;;2.40;2.03;;;;;;;8.80;100.00;98415.81;5017965;28;20356;-58
2022/01/04 03:55:56;;;;;;;2.60;2.10;;;;;;;8.83;100.00;98415.59;5011178;28;20656;-56
2022/01/04 03:58:22;;;;;;;2.60;1.80;;;;;;;8.91;100.00;98404.75;5011115;28;20175;-57
2022/01/04 04:00:47;;;;;;;1.83;1.73;;;;;;;9.04;100.00;98404.63;4996089;28;20244;-56
2022/01/04 04:03:13;;;;;;;1.90;1.80;;;;;;;8.92;100.00;98395.31;5020514;28;20633;-57
2022/01/04 04:05:38;;;;;;;2.17;2.03;;;;;;;8.82;100.00;98383.19;5009358;28;20179;-57
2022/01/04 04:08:04;;;;;;;2.40;1.93;;;;;;;8.83;100.00;98378.84;5010910;28;20521;-57
2022/01/04 04:10:29;;;;;;;2.70;1.40;;;;;;;8.76;100.00;98375.13;5004053;28;20599;-58
2022/01/04 04:12:54;;;;;;;2.00;1.67;;;;;;;8.79;100.00;98364.66;5022417;28;20318;-57
2022/01/04 04:15:20;;;;;;;1.60;1.50;;;;;;;8.80;100.00;98356.84;5002715;28;20316;-57
2022/01/04 04:17:46;;;;;;;1.83;1.50;;;;;;;8.81;100.00;98358.47;5023742;28;20182;-57
2022/01/04 04:20:12;;;;;;;2.20;1.70;;;;;;;8.80;100.00;98351.72;5002670;28;20567;-58
2022/01/04 04:22:37;;;;;;;1.70;1.60;;;;;;;8.90;100.00;98349.28;4993865;28;20186;-58
2022/01/04 04:25:03;;;;;;;2.43;1.80;;;;;;;8.87;100.00;98352.06;5010922;28;20174;-58
2022/01/04 04:27:28;;;;;;;4.10;1.73;;;;;;;8.81;100.00;98355.09;5010918;28;20170;-58
2022/01/04 04:29:54;;;;;;;1.80;1.70;;;;;;;8.81;100.00;98348.22;5011084;28;20195;-58
2022/01/04 04:32:19;;;;;;;2.20;1.70;;;;;;;8.86;100.00;98343.56;4974913;28;20234;-57
2022/01/04 04:34:44;;;;;;;3.60;1.70;;;;;;;8.74;100.00;98346.25;5003218;28;20182;-57
2022/01/04 04:37:10;;;;;;;1.57;1.47;;;;;;;8.68;100.00;98335.50;5010282;28;20210;-58
2022/01/04 04:39:35;;;;;;;1.73;1.60;;;;;;;8.84;100.00;98335.19;5010254;28;20256;-58
2022/01/04 04:42:01;;;;;;;2.93;1.70;;;;;;;8.80;100.00;98330.41;5015143;28;20229;-58
2022/01/04 04:44:26;;;;;;;2.73;1.70;;;;;;;8.85;100.00;98325.72;5010395;28;20258;-58
2022/01/04 04:46:52;;;;;;;4.23;1.93;;;;;;;8.74;100.00;98323.97;5010099;28;20183;-57
2022/01/04 04:49:17;;;;;;;3.70;1.77;;;;;;;8.80;100.00;98315.00;5010160;28;20277;-58
2022/01/04 04:51:42;;;;;;;2.80;1.70;;;;;;;8.77;100.00;98304.97;5012872;28;20225;-56
2022/01/04 04:54:08;;;;;;;1.80;1.40;;;;;;;8.76;100.00;98301.59;5012518;28;20313;-57
2022/01/04 04:56:34;;;;;;;1.50;1.30;;;;;;;8.79;100.00;98303.91;5010097;28;20178;-57
2022/01/04 04:59:00;;;;;;;1.83;1.40;;;;;;;8.64;100.00;98299.97;5010144;28;20206;-57
2022/01/04 05:01:25;;;;;;;1.63;1.53;;;;;;;8.76;100.00;98295.66;5010436;28;20732;-56
2022/01/04 05:03:52;;;;;;;1.70;1.53;;;;;;;8.71;100.00;98296.81;5014663;28;20174;-56
2022/01/04 05:06:18;;;;;;;2.07;1.60;;;;;;;8.75;100.00;98297.41;5010073;28;20186;-57
2022/01/04 05:08:43;;;;;;;1.63;1.43;;;;;;;8.81;100.00;98293.56;5010030;28;20256;-57
2022/01/04 05:11:08;;;;;;;2.73;1.53;;;;;;;8.78;100.00;98292.06;5008417;28;20222;-58
2022/01/04 05:13:36;;;;;;;1.63;1.43;;;;;;;8.66;100.00;98290.44;5019215;28;20174;-57
2022/01/04 05:16:02;;;;;;;1.37;1.27;;;;;;;8.72;100.00;98282.28;5013966;28;20178;-57
2022/01/04 05:18:27;;;;;;;2.03;1.70;;;;;;;8.70;100.00;98277.25;5014721;28;20229;-58
2022/01/04 05:20:52;;;;;;;1.43;1.30;;;;;;;8.75;100.00;98274.34;5005730;28;20307;-57
2022/01/04 05:23:18;;;;;;;3.07;1.40;;;;;;;8.75;100.00;98276.09;5022659;28;20209;-56
2022/01/04 05:25:43;;;;;;;1.60;1.50;;;;;;;8.70;100.00;98274.69;5013665;28;20258;-57
2022/01/04 05:28:08;;;;;;;2.23;1.50;;;;;;;8.79;100.00;98277.47;5013992;28;20595;-57
2022/01/04 05:30:34;;;;;;;2.53;1.50;;;;;;;8.76;100.00;98283.66;5007406;28;20229;-57
2022/01/04 05:32:59;;;;;;;1.50;1.40;;;;;;;8.81;100.00;98278.19;5025146;28;20698;-58
2022/01/04 05:35:24;;;;;;;2.80;1.70;;;;;;;8.85;100.00;98270.13;5028499;28;20186;-57
2022/01/04 05:37:50;;;;;;;2.13;1.43;;;;;;;8.83;100.00;98261.75;5013661;28;20318;-58
2022/01/04 05:40:15;;;;;;;2.30;1.50;;;;;;;8.90;100.00;98259.53;5004992;28;20261;-58
2022/01/04 05:42:40;;;;;;;1.73;1.33;;;;;;;8.87;100.00;98250.31;5027157;28;20179;-58
2022/01/04 05:45:06;;;;;;;2.53;1.33;;;;;;;8.92;100.00;98239.72;5013254;28;20655;-58
2022/01/04 05:47:31;;;;;;;2.97;1.73;;;;;;;8.86;100.00;98246.13;5013359;28;20179;-58
2022/01/04 05:49:57;;;;;;;1.57;1.37;;;;;;;8.79;100.00;98244.16;5013565;28;20229;-58
2022/01/04 05:52:22;;;;;;;2.83;1.50;;;;;;;8.76;100.00;98234.94;5019374;28;20667;-58
2022/01/04 05:54:49;;;;;;;1.50;1.23;;;;;;;8.71;100.00;98234.50;5013651;28;20787;-58
2022/01/04 05:57:17;;;;;;;1.80;1.50;;;;;;;8.69;100.00;98224.34;5013831;28;20263;-58
2022/01/04 05:59:43;;;;;;;4.23;1.90;;;;;;;8.74;100.00;98220.63;5013901;28;20660;-58
2022/01/04 06:02:08;;;;;;;1.73;1.50;;;;;;;8.83;100.00;98219.91;5018929;28;20230;-58
2022/01/04 06:04:34;;;;;;;1.27;1.17;;;;;;;8.92;100.00;98220.94;5013071;28;20171;-58
2022/01/04 06:06:59;;;;;;;1.43;1.20;;;;;;;8.92;100.00;98210.69;5013186;28;20972;-56
2022/01/04 06:09:39;;;;;;;2.13;1.53;;;;;;;8.79;100.00;98200.56;5012940;28;20198;-57
2022/01/04 06:14:49;;;;;;;2.30;1.20;;;;;;;8.86;100.00;98192.28;5004764;28;20226;-58
2022/01/04 06:14:51;;;;;;;1.70;1.50;;;;;;;8.75;100.00;98194.06;5010118;28;20377;-57
2022/01/04 06:17:16;;;;;;;1.50;1.20;;;;;;;8.70;100.00;98207.22;5012958;28;20191;-57
2022/01/04 06:19:41;;;;;;;1.67;1.30;;;;;;;8.72;100.00;98190.78;5011904;28;20684;-56
2022/01/04 06:22:07;;;;;;;2.30;1.40;;;;;;;8.84;100.00;98194.16;4993740;28;20218;-57
2022/01/04 06:24:33;;;;;;;1.53;1.40;;;;;;;8.87;100.00;98191.34;5013234;28;20182;-58
2022/01/04 06:26:59;;;;;;;1.30;1.17;;;;;;;8.99;100.00;98189.59;5018380;28;20182;-58
2022/01/04 06:29:24;;;;;;;1.70;1.60;;;;;;;9.01;100.00;98184.31;5023999;28;20560;-57
2022/01/04 06:31:50;;;;;;;4.03;1.50;;;;;;;9.05;100.00;98175.44;5036174;28;20225;-57
2022/01/04 06:34:17;;;;;;;3.07;2.67;;;;;;;9.09;100.00;98174.28;5034145;28;20205;-58
2022/01/04 06:36:42;;;;;;;3.20;3.00;;;;;;;9.06;100.00;98187.34;5013377;28;20186;-58
2022/01/04 06:39:08;;;;;;;2.83;1.60;;;;;;;9.08;100.00;98179.53;5010314;28;20661;-58
2022/01/04 06:41:33;;;;;;;2.60;1.10;;;;;;;9.02;100.00;98184.19;5013978;28;20271;-58
2022/01/04 06:43:58;;;;;;;1.50;1.37;;;;;;;8.91;100.00;98196.25;5019271;28;20178;-57
2022/01/04 06:46:25;;;;;;;4.23;2.00;;;;;;;8.54;100.00;98190.44;5007318;28;20687;-58
2022/01/04 06:48:50;;;;;;;2.20;2.00;;;;;;;8.04;100.00;98202.78;5012850;28;20674;-57
2022/01/04 06:51:16;;;;;;;1.30;1.20;;;;;;;7.74;100.00;98178.50;5012598;28;20237;-58
2022/01/04 06:53:41;;;;;;;1.37;1.20;;;;;;;7.45;100.00;98193.41;5018744;28;20185;-57
2022/01/04 06:56:06;;;;;;;1.50;1.00;;;;;;;7.30;100.00;98187.66;5013120;28;20605;-57
2022/01/04 06:58:32;;;;;;;1.50;0.70;;;;;;;7.24;100.00;98171.00;5013321;28;20222;-56
2022/01/04 07:00:57;;;;;;;0.53;0.53;;;;;;;7.23;100.00;98171.94;5009785;28;20237;-57
2022/01/04 07:03:22;;;;;;;0.70;0.70;;;;;;;7.09;100.00;98172.91;5021059;28;20568;-57
2022/01/04 07:05:48;;;;;;;0.80;0.80;;;;;;;7.20;100.00;98177.28;5012703;28;20224;-57
2022/01/04 07:08:13;;;;;;;0.67;0.63;;;;;;;7.25;100.00;98181.13;5012828;28;20231;-57
2022/01/04 07:10:38;;;;;;;0.73;0.63;;;;;;;7.20;100.00;98177.28;5007376;28;20226;-58
2022/01/04 07:13:04;;;;;;;1.20;0.90;;;;;;;7.07;100.00;98175.59;5011344;28;20212;-58
2022/01/04 07:15:29;;;;;;;1.10;0.97;;;;;;;7.19;100.00;98188.44;5012280;28;20192;-58
2022/01/04 07:17:54;;;;;;;1.73;0.90;;;;;;;7.23;100.00;98174.47;5012740;28;20206;-57
2022/01/04 07:20:20;;;;;;;1.40;1.10;;;;;;;7.23;100.00;98174.47;5003209;28;20324;-57
2022/01/04 07:22:45;;;;;;;4.37;0.90;;;;;;;7.06;100.00;98173.16;5025477;28;20584;-57
2022/01/04 07:25:10;;;;;;;0.90;0.70;;;;;;;6.85;100.00;98173.72;5012203;28;20612;-57
2022/01/04 07:27:36;;;;;;;0.80;0.73;;;;;;;6.81;100.00;98177.44;5012566;28;20178;-57
2022/01/04 07:30:02;;;;;;;2.47;2.27;;;;;;;6.92;100.00;98174.94;5012655;28;20206;-57
2022/01/04 07:32:27;;;;;;;1.93;1.40;;;;;;;6.95;100.00;98179.00;5001584;28;20214;-57
2022/01/04 07:34:53;;;;;;;1.77;1.10;;;;;;;6.75;100.00;98177.84;5011921;28;20225;-57
2022/01/04 07:37:18;;;;;;;0.97;0.73;;;;;;;6.68;100.00;98174.91;5004765;28;20266;-57
2022/01/04 07:39:43;;;;;;;0.73;0.70;;;;;;;6.53;100.00;98170.84;5008637;28;20210;-57
2022/01/04 07:42:09;;;;;;;2.83;1.80;;;;;;;6.46;100.00;98171.28;5017141;28;20668;-57
2022/01/04 07:44:34;;;;;;;1.40;1.00;;;;;;;6.42;100.00;98174.94;5012960;28;20182;-57
2022/01/04 07:46:59;;;;;;;1.17;0.50;;;;;;;6.35;100.00;98157.59;5012006;28;20174;-57
2022/01/04 07:49:25;;;;;;;0.50;0.47;;;;;;;6.37;100.00;98168.53;5020058;28;20219;-57
2022/01/04 07:51:51;;;;;;;0.50;0.50;;;;;;;6.27;100.00;98160.69;5005859;28;20625;-57
2022/01/04 07:54:16;;;;;;;0.40;0.40;;;;;;;6.21;100.00;98158.53;5014644;28;20214;-57
2022/01/04 07:56:42;;;;;;;0.63;0.60;;;;;;;6.31;100.00;98164.66;5015383;28;20264;-58
2022/01/04 07:59:07;;;;;;;1.63;1.30;;;;;;;6.53;100.00;98163.19;5016828;28;20286;-57
2022/01/04 08:01:33;;;;;;;1.30;1.20;;;;;;;6.64;100.00;98158.16;5009380;28;20290;-57
2022/01/04 08:04:00;;;;;;;1.40;1.30;;;;;;;6.54;100.00;98157.16;5000488;28;20220;-58
2022/01/04 08:06:25;;;;;;;1.73;1.00;;;;;;;6.51;100.00;98157.38;4992667;28;20232;-58
2022/01/04 08:08:51;;;;;;;1.57;1.47;;;;;;;6.52;100.00;98157.25;4992258;28;20588;-58
2022/01/04 08:11:16;;;;;;;1.40;1.30;;;;;;;6.39;100.00;98161.59;5002025;28;20298;-57
2022/01/04 08:13:41;;;;;;;4.77;3.00;;;;;;;6.34;100.00;98150.84;5035079;28;20212;-57
2022/01/04 08:16:07;;;;;;;4.20;2.97;;;;;;;6.42;100.00;98149.41;5029996;28;20278;-57
2022/01/04 08:18:32;;;;;;;5.27;3.17;;;;;;;6.38;100.00;98139.53;5032449;28;20189;-57
2022/01/04 08:20:57;;;;;;;2.87;1.63;;;;;;;6.35;100.00;98127.78;5015061;28;20320;-58
2022/01/04 08:23:25;;;;;;;0.83;0.83;;;;;;;6.58;100.00;98128.72;5031063;28;20173;-56
2022/01/04 08:25:51;;;;;;;4.07;1.10;;;;;;;6.51;100.00;98135.22;5031578;28;20178;-56
2022/01/04 08:28:16;;;;;;;1.67;1.37;;;;;;;6.46;100.00;98142.34;5020114;28;20196;-56
2022/01/04 08:30:43;;;;;;;1.07;1.07;;;;;;;6.57;100.00;98142.44;4994508;28;20229;-55
2022/01/04 08:33:11;;;;;;;1.20;0.90;;;;;;;6.57;100.00;98132.22;5036772;28;20601;-56
2022/01/04 08:35:38;;;;;;;1.20;1.03;;;;;;;6.75;100.00;98119.88;5031124;28;20181;-56
2022/01/04 08:38:05;;;;;;;1.30;1.20;;;;;;;6.73;100.00;98116.63;5017111;28;20646;-57
2022/01/04 08:40:30;;;;;;;8.90;1.10;;;;;;;6.89;100.00;98124.03;5004696;28;20329;-56
2022/01/04 08:42:55;;;;;;;1.67;1.57;;;;;;;7.00;100.00;98125.00;5023153;28;20607;-57
2022/01/04 08:45:21;;;;;;;3.90;2.20;;;;;;;6.77;100.00;98112.94;5009913;28;20602;-57
2022/01/04 08:47:49;;;;;;;1.20;1.10;;;;;;;6.68;100.00;98111.03;5010372;28;20178;-57
2022/01/04 08:50:15;;;;;;;0.90;0.90;;;;;;;6.89;100.00;98106.13;5020496;28;20201;-56
2022/01/04 08:52:41;;;;;;;1.83;1.73;;;;;;;6.99;100.00;98111.41;5044220;28;20219;-57
2022/01/04 08:55:08;;;;;;;2.27;1.40;;;;;;;7.09;100.00;98114.13;5015206;28;20194;-58
2022/01/04 08:57:34;;;;;;;1.83;0.97;;;;;;;7.02;100.00;98097.56;5019263;28;20193;-58
2022/01/04 08:59:59;;;;;;;1.87;1.07;;;;;;;7.10;100.00;98102.97;5022627;28;20208;-58
2022/01/04 09:02:25;;;;;;;2.10;1.60;;;;;;;7.19;100.00;98114.28;5036103;28;20687;-58
2022/01/04 09:04:51;;;;;;;2.20;2.00;;;;;;;7.09;100.00;98104.72;5017193;28;20175;-58
2022/01/04 09:07:17;;;;;;;2.47;1.40;;;;;;;7.15;100.00;98105.19;5010583;28;20244;-58
2022/01/04 09:09:43;;;;;;;1.73;1.63;;;;;;;7.21;100.00;98102.19;5019102;28;20203;-58
2022/01/04 09:12:08;;;;;;;1.90;1.50;;;;;;;7.11;100.00;98100.28;4987757;28;20239;-58
2022/01/04 09:14:44;;;;;;;1.23;1.13;;;;;;;7.08;100.00;98105.66;5001598;28;20270;-58
2022/01/04 09:19:54;;;;;;;2.23;0.93;;;;;;;7.08;100.00;98097.13;5030377;28;20224;-58
2022/01/04 09:22:20;;;;;;;2.00;1.40;;;;;;;7.04;100.00;98098.28;5035966;28;20236;-58
2022/01/04 09:24:45;;;;;;;2.17;1.40;;;;;;;7.11;100.00;98118.19;5011720;28;20286;-58
2022/01/04 09:27:11;;;;;;;1.93;1.03;;;;;;;6.83;100.00;98104.00;5020951;28;20185;-59
2022/01/04 09:29:37;;;;;;;2.47;1.83;;;;;;;6.68;100.00;98105.91;5029092;28;20287;-58
2022/01/04 09:32:04;;;;;;;2.00;1.77;;;;;;;6.85;100.00;98102.16;5021979;28;20232;-58
2022/01/04 09:34:29;;;;;;;1.87;1.70;;;;;;;6.78;100.00;98112.03;5030175;28;20184;-58
2022/01/04 09:36:55;;;;;;;2.20;2.00;;;;;;;6.62;100.00;98124.22;5018392;28;20189;-58
2022/01/04 09:39:22;;;;;;;2.47;1.20;;;;;;;6.42;100.00;98113.66;5010520;28;20327;-58
2022/01/04 09:41:49;;;;;;;1.80;1.50;;;;;;;6.46;100.00;98114.25;5013656;28;20332;-58
2022/01/04 09:44:15;;;;;;;1.07;0.97;;;;;;;6.42;100.00;98087.31;5018811;28;20269;-57
2022/01/04 09:46:41;;;;;;;0.93;0.90;;;;;;;6.31;100.00;98098.25;5026702;28;20185;-58
2022/01/04 09:49:09;;;;;;;0.77;0.77;;;;;;;6.46;100.00;98124.47;5017980;28;20232;-58
2022/01/04 09:51:36;;;;;;;1.07;1.00;;;;;;;6.59;100.00;98135.47;5031983;28;20297;-58
2022/01/04 09:54:02;;;;;;;1.20;0.90;;;;;;;6.68;100.00;98143.44;5033386;28;20181;-58
2022/01/04 09:56:28;;;;;;;1.10;0.83;;;;;;;6.42;100.00;98126.41;5030516;28;20192;-58
2022/01/04 09:58:53;;;;;;;1.37;1.27;;;;;;;6.21;100.00;98117.69;5031767;28;20200;-58
2022/01/04 10:01:27;;;;;;;2.33;2.00;;;;;;;6.36;100.00;98129.41;5033445;28;20270;-58
2022/01/04 10:03:52;;;;;;;1.30;1.20;;;;;;;6.37;100.00;98125.94;5038713;28;20200;-58
2022/01/04 10:06:18;;;;;;;1.10;1.00;;;;;;;6.37;100.00;98143.81;5014564;28;20185;-59
2022/01/04 10:09:01;;;;;;;1.27;1.00;;;;;;;6.11;100.00;98148.94;5017914;28;20279;-58
2022/01/04 10:11:36;;;;;;;0.87;0.87;;;;;;;6.25;100.00;98149.75;5017452;28;20265;-57
2022/01/04 10:14:24;;;;;;;1.67;0.80;;;;;;;6.11;100.00;98143.03;5033163;28;20185;-58
2022/01/04 10:16:50;;;;;;;0.97;0.90;;;;;;;6.09;100.00;98149.97;5033985;28;20171;-58
2022/01/04 10:19:32;;;;;;;1.70;1.00;;;;;;;6.16;100.00;98158.84;5033680;28;20204;-57
2022/01/04 10:22:20;;;;;;;1.03;0.90;;;;;;;6.21;100.00;98166.19;5037573;28;20336;-57
2022/01/04 10:25:11;;;;;;;0.87;0.80;;;;;;;6.14;100.00;98158.97;5020864;28;20190;-57
2022/01/04 10:27:48;;;;;;;1.33;0.87;;;;;;;6.22;100.00;98167.84;5009164;28;20196;-58
2022/01/04 10:30:28;;;;;;;0.67;0.60;;;;;;;6.10;100.00;98172.84;5008078;28;20198;-58
2022/01/04 10:32:57;;;;;;;2.60;0.90;;;;;;;6.29;100.00;98163.97;5025298;28;20490;-58
2022/01/04 10:35:43;;;;;;;1.17;0.90;;;;;;;6.06;100.00;98170.59;5013339;28;20181;-57
2022/01/04 10:38:26;;;;;;;1.00;0.90;;;;;;;6.13;100.00;98164.19;5013600;28;20240;-58
2022/01/04 10:41:00;;;;;;;1.00;0.87;;;;;;;6.28;100.00;98167.44;5009368;28;20259;-58
2022/01/04 10:43:43;;;;;;;1.93;0.97;;;;;;;6.33;100.00;98170.47;5022483;28;20535;-58
2022/01/04 10:46:10;;;;;;;1.60;0.80;;;;;;;5.97;100.00;98170.25;5020823;28;20192;-57
2022/01/04 10:48:41;;;;;;;1.17;1.07;;;;;;;5.90;100.00;98179.22;5017668;28;20956;-57
2022/01/04 10:51:06;;;;;;;;;;;;;;;5.70;100.00;98180.53;4995988;28;408112;-57
2022/01/04 10:53:42;;;;;;;;;;;;;;;5.58;100.00;98179.63;5022544;28;20397;-58
2022/01/04 10:56:09;;;;;;;;;;;;;;;5.63;100.00;98189.50;5021127;28;19917;-57
2022/01/04 10:58:42;;;;;;;;;;;;;;;5.64;100.00;98184.34;5014993;28;20401;-58
2022/01/04 11:01:09;;;;;;;;;;;;;;;5.56;100.00;98184.00;5015041;28;19925;-58
2022/01/04 11:03:36;;;;;;;;;;;;;;;5.47;100.00;98182.03;5010944;28;19919;-58
2022/01/04 11:06:03;;;;;;;;;;;;;;;5.49;100.00;98183.59;5022016;28;20024;-58
2022/01/04 11:08:29;;;;;;;;;;;;;;;5.54;100.00;98172.25;5017074;28;19920;-57
2022/01/04 11:10:55;;;;;;;;;;;;;;;5.42;100.00;98181.50;5012732;28;19912;-57
2022/01/04 11:13:20;;;;;;;;;;;;;;;5.26;100.00;98181.66;5025264;28;19910;-58
2022/01/04 11:15:46;;;;;;;;;;;;;;;5.30;100.00;98185.69;5016069;28;19967;-58
2022/01/04 11:18:11;;;;;;;;;;;;;;;5.42;100.00;98187.44;5024766;28;19942;-58
2022/01/04 11:20:39;;;;;;;;;;;;;;;5.37;100.00;98192.03;5026791;28;20375;-58
2022/01/04 11:23:04;;;;;;;;;;;;;;;5.44;100.00;98197.53;5015690;28;19909;-58
2022/01/04 11:25:30;;;;;;;;;;;;;;;5.53;100.00;98196.13;5018211;28;20329;-58
2022/01/04 11:27:57;;;;;;;;;;;;;;;5.41;100.00;98196.00;5020669;28;20325;-58
2022/01/04 11:30:29;;;;;;;;;;;;;;;5.53;100.00;98196.13;5008937;28;19930;-58
2022/01/04 11:32:57;;;;;;;;;;;;;;;5.57;100.00;98202.66;5024629;28;20413;-58
2022/01/04 11:35:24;;;;;;;;;;;;;;;5.52;100.00;98205.53;5021159;28;19917;-58
2022/01/04 11:37:50;;;;;;;;;;;;;;;5.57;100.00;98203.50;5020713;28;19928;-58
2022/01/04 11:40:23;;;;;;;;;;;;;;;5.55;100.00;98204.50;5004273;28;20004;-58
2022/01/04 11:42:48;;;;;;;;;;;;;;;5.74;100.00;98197.31;5025761;28;20055;-59